sensor_id;sensor_type;location;lat;lon;timestamp;P1;durP1;ratioP1;P2;durP2;ratioP2
52934;SDS011;38802;50.198;19.796;2022-08-19T00:01:56;18.90;;;14.40;;
52934;SDS011;38802;50.198;19.796;2022-08-19T00:04:32;16.10;;;14.60;;
52934;SDS011;38802;50.198;19.796;2022-08-19T00:07:04;16.30;;;14.70;;
52934;SDS011;38802;50.198;19.796;2022-08-19T00:09:34;16.50;;;15.00;;
52934;SDS011;38802;50.198;19.796;2022-08-19T00:12:02;16.50;;;14.00;;
52934;SDS011;38802;50.198;19.796;2022-08-19T00:14:31;17.40;;;14.80;;
52934;SDS011;38802;50.198;19.796;2022-08-19T00:17:00;16.70;;;14.20;;
52934;SDS011;38802;50.198;19.796;2022-08-19T00:19:28;15.20;;;13.60;;
52934;SDS011;38802;50.198;19.796;2022-08-19T00:21:58;16.50;;;14.60;;
52934;SDS011;38802;50.198;19.796;2022-08-19T00:24:26;17.10;;;14.50;;
52934;SDS011;38802;50.198;19.796;2022-08-19T00:26:56;17.30;;;13.90;;
52934;SDS011;38802;50.198;19.796;2022-08-19T00:29:44;17.00;;;15.10;;
52934;SDS011;38802;50.198;19.796;2022-08-19T00:32:19;16.00;;;14.40;;
52934;SDS011;38802;50.198;19.796;2022-08-19T00:34:48;18.50;;;14.40;;
52934;SDS011;38802;50.198;19.796;2022-08-19T00:37:16;15.90;;;14.40;;
52934;SDS011;38802;50.198;19.796;2022-08-19T00:39:44;15.50;;;14.10;;
52934;SDS011;38802;50.198;19.796;2022-08-19T00:42:16;15.40;;;14.10;;
52934;SDS011;38802;50.198;19.796;2022-08-19T00:44:44;17.00;;;15.30;;
52934;SDS011;38802;50.198;19.796;2022-08-19T00:47:14;18.40;;;14.30;;
52934;SDS011;38802;50.198;19.796;2022-08-19T00:49:47;16.00;;;14.50;;
52934;SDS011;38802;50.198;19.796;2022-08-19T00:52:53;18.10;;;14.60;;
52934;SDS011;38802;50.198;19.796;2022-08-19T00:55:17;16.80;;;15.10;;
52934;SDS011;38802;50.198;19.796;2022-08-19T00:57:51;15.20;;;13.70;;
52934;SDS011;38802;50.198;19.796;2022-08-19T01:00:23;17.70;;;14.60;;
52934;SDS011;38802;50.198;19.796;2022-08-19T01:02:53;15.90;;;14.20;;
52934;SDS011;38802;50.198;19.796;2022-08-19T01:05:23;19.30;;;15.50;;
52934;SDS011;38802;50.198;19.796;2022-08-19T01:07:56;17.90;;;14.90;;
52934;SDS011;38802;50.198;19.796;2022-08-19T01:10:27;16.60;;;14.60;;
52934;SDS011;38802;50.198;19.796;2022-08-19T01:13:04;17.20;;;15.30;;
52934;SDS011;38802;50.198;19.796;2022-08-19T01:15:35;18.80;;;15.10;;
52934;SDS011;38802;50.198;19.796;2022-08-19T01:18:09;18.40;;;16.10;;
52934;SDS011;38802;50.198;19.796;2022-08-19T01:20:40;16.80;;;15.00;;
52934;SDS011;38802;50.198;19.796;2022-08-19T01:23:10;16.90;;;15.30;;
52934;SDS011;38802;50.198;19.796;2022-08-19T01:25:49;19.10;;;15.40;;
52934;SDS011;38802;50.198;19.796;2022-08-19T01:28:22;17.10;;;15.50;;
52934;SDS011;38802;50.198;19.796;2022-08-19T01:31:08;15.40;;;14.00;;
52934;SDS011;38802;50.198;19.796;2022-08-19T01:33:55;23.00;;;14.20;;
52934;SDS011;38802;50.198;19.796;2022-08-19T01:36:27;16.60;;;14.90;;
52934;SDS011;38802;50.198;19.796;2022-08-19T01:38:58;16.60;;;14.80;;
52934;SDS011;38802;50.198;19.796;2022-08-19T01:41:27;16.90;;;14.70;;
52934;SDS011;38802;50.198;19.796;2022-08-19T01:43:56;19.50;;;15.50;;
52934;SDS011;38802;50.198;19.796;2022-08-19T01:46:43;16.90;;;15.00;;
52934;SDS011;38802;50.198;19.796;2022-08-19T01:49:12;15.70;;;14.30;;
52934;SDS011;38802;50.198;19.796;2022-08-19T01:51:40;17.40;;;14.90;;
52934;SDS011;38802;50.198;19.796;2022-08-19T01:54:09;18.20;;;14.50;;
52934;SDS011;38802;50.198;19.796;2022-08-19T01:56:39;17.80;;;14.80;;
52934;SDS011;38802;50.198;19.796;2022-08-19T01:59:12;16.80;;;15.10;;
52934;SDS011;38802;50.198;19.796;2022-08-19T02:01:45;16.60;;;14.30;;
52934;SDS011;38802;50.198;19.796;2022-08-19T02:04:14;16.20;;;14.60;;
52934;SDS011;38802;50.198;19.796;2022-08-19T02:06:42;16.40;;;14.80;;
52934;SDS011;38802;50.198;19.796;2022-08-19T02:09:10;15.40;;;13.90;;
52934;SDS011;38802;50.198;19.796;2022-08-19T02:11:38;16.50;;;15.10;;
52934;SDS011;38802;50.198;19.796;2022-08-19T02:14:07;15.20;;;13.90;;
52934;SDS011;38802;50.198;19.796;2022-08-19T02:16:36;15.20;;;13.90;;
52934;SDS011;38802;50.198;19.796;2022-08-19T02:19:04;14.40;;;13.10;;
52934;SDS011;38802;50.198;19.796;2022-08-19T02:21:33;16.50;;;15.00;;
52934;SDS011;38802;50.198;19.796;2022-08-19T02:24:01;15.50;;;13.90;;
52934;SDS011;38802;50.198;19.796;2022-08-19T02:26:31;15.40;;;13.90;;
52934;SDS011;38802;50.198;19.796;2022-08-19T02:29:00;15.60;;;13.30;;
52934;SDS011;38802;50.198;19.796;2022-08-19T02:31:28;15.10;;;13.60;;
52934;SDS011;38802;50.198;19.796;2022-08-19T02:33:56;16.50;;;14.70;;
52934;SDS011;38802;50.198;19.796;2022-08-19T02:36:26;14.60;;;13.10;;
52934;SDS011;38802;50.198;19.796;2022-08-19T02:38:56;15.00;;;13.70;;
52934;SDS011;38802;50.198;19.796;2022-08-19T02:41:26;15.60;;;14.20;;
52934;SDS011;38802;50.198;19.796;2022-08-19T02:43:56;15.00;;;13.80;;
52934;SDS011;38802;50.198;19.796;2022-08-19T02:46:46;15.70;;;14.10;;
52934;SDS011;38802;50.198;19.796;2022-08-19T02:49:18;16.10;;;13.70;;
52934;SDS011;38802;50.198;19.796;2022-08-19T02:51:47;15.20;;;13.80;;
52934;SDS011;38802;50.198;19.796;2022-08-19T02:54:15;15.30;;;13.70;;
52934;SDS011;38802;50.198;19.796;2022-08-19T02:56:44;16.70;;;13.70;;
52934;SDS011;38802;50.198;19.796;2022-08-19T02:59:13;13.90;;;12.50;;
52934;SDS011;38802;50.198;19.796;2022-08-19T03:01:41;14.50;;;12.90;;
52934;SDS011;38802;50.198;19.796;2022-08-19T03:04:12;17.10;;;13.20;;
52934;SDS011;38802;50.198;19.796;2022-08-19T03:06:43;18.30;;;13.30;;
52934;SDS011;38802;50.198;19.796;2022-08-19T03:09:14;14.80;;;13.40;;
52934;SDS011;38802;50.198;19.796;2022-08-19T03:11:43;15.70;;;12.70;;
52934;SDS011;38802;50.198;19.796;2022-08-19T03:14:11;14.90;;;13.40;;
52934;SDS011;38802;50.198;19.796;2022-08-19T03:16:42;13.90;;;12.60;;
52934;SDS011;38802;50.198;19.796;2022-08-19T03:19:34;14.90;;;13.60;;
52934;SDS011;38802;50.198;19.796;2022-08-19T03:22:02;14.70;;;13.30;;
52934;SDS011;38802;50.198;19.796;2022-08-19T03:24:32;14.10;;;13.00;;
52934;SDS011;38802;50.198;19.796;2022-08-19T03:27:00;15.70;;;11.50;;
52934;SDS011;38802;50.198;19.796;2022-08-19T03:29:29;13.50;;;12.10;;
52934;SDS011;38802;50.198;19.796;2022-08-19T03:31:59;14.40;;;13.10;;
52934;SDS011;38802;50.198;19.796;2022-08-19T03:34:32;13.70;;;12.40;;
52934;SDS011;38802;50.198;19.796;2022-08-19T03:37:03;15.40;;;13.40;;
52934;SDS011;38802;50.198;19.796;2022-08-19T03:39:37;14.70;;;13.20;;
52934;SDS011;38802;50.198;19.796;2022-08-19T03:42:07;14.00;;;12.50;;
52934;SDS011;38802;50.198;19.796;2022-08-19T03:44:57;13.70;;;12.30;;
52934;SDS011;38802;50.198;19.796;2022-08-19T03:47:25;15.00;;;13.40;;
52934;SDS011;38802;50.198;19.796;2022-08-19T03:49:54;17.30;;;13.40;;
52934;SDS011;38802;50.198;19.796;2022-08-19T03:52:22;13.90;;;12.80;;
52934;SDS011;38802;50.198;19.796;2022-08-19T03:54:50;14.70;;;13.20;;
52934;SDS011;38802;50.198;19.796;2022-08-19T03:57:19;14.80;;;12.60;;
52934;SDS011;38802;50.198;19.796;2022-08-19T03:59:51;14.10;;;12.90;;
52934;SDS011;38802;50.198;19.796;2022-08-19T04:02:19;14.50;;;13.10;;
52934;SDS011;38802;50.198;19.796;2022-08-19T04:04:48;19.90;;;13.80;;
52934;SDS011;38802;50.198;19.796;2022-08-19T04:07:16;14.80;;;13.40;;
52934;SDS011;38802;50.198;19.796;2022-08-19T04:09:45;16.10;;;13.70;;
52934;SDS011;38802;50.198;19.796;2022-08-19T04:12:14;14.70;;;12.70;;
52934;SDS011;38802;50.198;19.796;2022-08-19T04:14:42;15.00;;;13.60;;
52934;SDS011;38802;50.198;19.796;2022-08-19T04:17:10;15.20;;;13.60;;
52934;SDS011;38802;50.198;19.796;2022-08-19T04:19:40;17.90;;;13.70;;
52934;SDS011;38802;50.198;19.796;2022-08-19T04:22:10;15.80;;;14.20;;
52934;SDS011;38802;50.198;19.796;2022-08-19T04:24:39;15.50;;;14.00;;
52934;SDS011;38802;50.198;19.796;2022-08-19T04:27:07;17.80;;;14.60;;
52934;SDS011;38802;50.198;19.796;2022-08-19T04:29:35;20.10;;;12.40;;
52934;SDS011;38802;50.198;19.796;2022-08-19T04:32:07;15.00;;;13.30;;
52934;SDS011;38802;50.198;19.796;2022-08-19T04:34:36;13.60;;;12.10;;
52934;SDS011;38802;50.198;19.796;2022-08-19T04:37:26;13.50;;;12.20;;
52934;SDS011;38802;50.198;19.796;2022-08-19T04:40:04;16.20;;;12.20;;
52934;SDS011;38802;50.198;19.796;2022-08-19T04:42:52;13.90;;;12.70;;
52934;SDS011;38802;50.198;19.796;2022-08-19T04:45:22;13.80;;;12.30;;
52934;SDS011;38802;50.198;19.796;2022-08-19T04:47:54;15.30;;;12.30;;
52934;SDS011;38802;50.198;19.796;2022-08-19T04:50:43;16.60;;;12.50;;
52934;SDS011;38802;50.198;19.796;2022-08-19T04:53:12;16.10;;;12.60;;
52934;SDS011;38802;50.198;19.796;2022-08-19T04:55:40;14.60;;;12.00;;
52934;SDS011;38802;50.198;19.796;2022-08-19T04:58:09;14.00;;;12.30;;
52934;SDS011;38802;50.198;19.796;2022-08-19T05:00:38;13.50;;;11.90;;
52934;SDS011;38802;50.198;19.796;2022-08-19T05:03:07;12.70;;;11.40;;
52934;SDS011;38802;50.198;19.796;2022-08-19T05:05:40;11.90;;;10.80;;
52934;SDS011;38802;50.198;19.796;2022-08-19T05:08:12;12.40;;;10.80;;
52934;SDS011;38802;50.198;19.796;2022-08-19T05:13:26;10.70;;;9.90;;
52934;SDS011;38802;50.198;19.796;2022-08-19T05:15:57;11.80;;;10.70;;
52934;SDS011;38802;50.198;19.796;2022-08-19T05:18:26;11.80;;;10.40;;
52934;SDS011;38802;50.198;19.796;2022-08-19T05:21:14;16.80;;;10.70;;
52934;SDS011;38802;50.198;19.796;2022-08-19T05:24:04;11.50;;;9.50;;
52934;SDS011;38802;50.198;19.796;2022-08-19T05:26:37;11.00;;;9.80;;
52934;SDS011;38802;50.198;19.796;2022-08-19T05:29:10;10.30;;;9.40;;
52934;SDS011;38802;50.198;19.796;2022-08-19T05:31:38;10.60;;;9.70;;
52934;SDS011;38802;50.198;19.796;2022-08-19T05:34:09;10.80;;;9.70;;
52934;SDS011;38802;50.198;19.796;2022-08-19T05:36:47;11.60;;;10.70;;
52934;SDS011;38802;50.198;19.796;2022-08-19T05:39:18;12.60;;;10.30;;
52934;SDS011;38802;50.198;19.796;2022-08-19T05:41:51;10.70;;;9.80;;
52934;SDS011;38802;50.198;19.796;2022-08-19T05:44:23;11.00;;;10.00;;
52934;SDS011;38802;50.198;19.796;2022-08-19T05:46:59;12.90;;;9.70;;
52934;SDS011;38802;50.198;19.796;2022-08-19T05:49:30;12.10;;;9.30;;
52934;SDS011;38802;50.198;19.796;2022-08-19T05:52:04;11.70;;;10.10;;
52934;SDS011;38802;50.198;19.796;2022-08-19T05:54:34;12.70;;;9.20;;
52934;SDS011;38802;50.198;19.796;2022-08-19T05:57:06;14.10;;;9.80;;
52934;SDS011;38802;50.198;19.796;2022-08-19T05:59:38;10.50;;;9.30;;
52934;SDS011;38802;50.198;19.796;2022-08-19T06:02:06;11.00;;;9.80;;
52934;SDS011;38802;50.198;19.796;2022-08-19T06:04:34;9.70;;;8.80;;
52934;SDS011;38802;50.198;19.796;2022-08-19T06:07:02;11.10;;;10.00;;
52934;SDS011;38802;50.198;19.796;2022-08-19T06:09:40;9.60;;;8.90;;
52934;SDS011;38802;50.198;19.796;2022-08-19T06:12:30;10.20;;;8.20;;
52934;SDS011;38802;50.198;19.796;2022-08-19T06:15:05;10.30;;;9.10;;
52934;SDS011;38802;50.198;19.796;2022-08-19T06:17:38;9.50;;;8.60;;
52934;SDS011;38802;50.198;19.796;2022-08-19T06:20:07;9.50;;;8.50;;
52934;SDS011;38802;50.198;19.796;2022-08-19T06:22:40;9.70;;;8.60;;
52934;SDS011;38802;50.198;19.796;2022-08-19T06:25:10;9.60;;;8.70;;
52934;SDS011;38802;50.198;19.796;2022-08-19T06:27:39;9.30;;;8.30;;
52934;SDS011;38802;50.198;19.796;2022-08-19T06:30:28;12.80;;;8.30;;
52934;SDS011;38802;50.198;19.796;2022-08-19T06:32:57;8.70;;;8.00;;
52934;SDS011;38802;50.198;19.796;2022-08-19T06:35:25;9.30;;;8.50;;
52934;SDS011;38802;50.198;19.796;2022-08-19T06:37:54;13.20;;;9.90;;
52934;SDS011;38802;50.198;19.796;2022-08-19T06:40:23;9.70;;;8.80;;
52934;SDS011;38802;50.198;19.796;2022-08-19T06:42:51;9.70;;;8.70;;
52934;SDS011;38802;50.198;19.796;2022-08-19T06:45:22;11.90;;;8.30;;
52934;SDS011;38802;50.198;19.796;2022-08-19T06:47:52;8.50;;;7.80;;
52934;SDS011;38802;50.198;19.796;2022-08-19T06:50:23;8.50;;;7.70;;
52934;SDS011;38802;50.198;19.796;2022-08-19T06:52:52;9.10;;;8.30;;
52934;SDS011;38802;50.198;19.796;2022-08-19T06:55:22;11.40;;;9.30;;
52934;SDS011;38802;50.198;19.796;2022-08-19T06:57:50;8.80;;;7.90;;
52934;SDS011;38802;50.198;19.796;2022-08-19T07:00:21;9.90;;;8.80;;
52934;SDS011;38802;50.198;19.796;2022-08-19T07:02:49;10.50;;;9.30;;
52934;SDS011;38802;50.198;19.796;2022-08-19T07:05:24;9.30;;;8.40;;
52934;SDS011;38802;50.198;19.796;2022-08-19T07:07:52;8.80;;;7.90;;
52934;SDS011;38802;50.198;19.796;2022-08-19T07:10:24;11.40;;;8.90;;
52934;SDS011;38802;50.198;19.796;2022-08-19T07:12:53;9.00;;;8.10;;
52934;SDS011;38802;50.198;19.796;2022-08-19T07:15:21;11.70;;;8.40;;
52934;SDS011;38802;50.198;19.796;2022-08-19T07:17:51;10.10;;;8.60;;
52934;SDS011;38802;50.198;19.796;2022-08-19T07:20:19;8.90;;;8.00;;
52934;SDS011;38802;50.198;19.796;2022-08-19T07:22:47;9.40;;;8.50;;
52934;SDS011;38802;50.198;19.796;2022-08-19T07:25:17;9.40;;;7.80;;
52934;SDS011;38802;50.198;19.796;2022-08-19T07:27:48;8.60;;;7.80;;
52934;SDS011;38802;50.198;19.796;2022-08-19T07:30:21;11.60;;;7.40;;
52934;SDS011;38802;50.198;19.796;2022-08-19T07:32:53;11.20;;;7.50;;
52934;SDS011;38802;50.198;19.796;2022-08-19T07:35:21;10.70;;;8.30;;
52934;SDS011;38802;50.198;19.796;2022-08-19T07:37:49;8.30;;;7.20;;
52934;SDS011;38802;50.198;19.796;2022-08-19T07:40:17;11.00;;;7.90;;
52934;SDS011;38802;50.198;19.796;2022-08-19T07:42:46;10.70;;;7.80;;
52934;SDS011;38802;50.198;19.796;2022-08-19T07:45:14;8.00;;;7.40;;
52934;SDS011;38802;50.198;19.796;2022-08-19T07:47:43;8.60;;;6.30;;
52934;SDS011;38802;50.198;19.796;2022-08-19T07:50:18;11.00;;;7.50;;
52934;SDS011;38802;50.198;19.796;2022-08-19T07:52:48;12.40;;;8.10;;
52934;SDS011;38802;50.198;19.796;2022-08-19T07:55:19;10.50;;;7.40;;
52934;SDS011;38802;50.198;19.796;2022-08-19T07:58:13;8.80;;;7.90;;
52934;SDS011;38802;50.198;19.796;2022-08-19T08:00:43;10.50;;;7.30;;
52934;SDS011;38802;50.198;19.796;2022-08-19T08:03:14;11.50;;;8.10;;
52934;SDS011;38802;50.198;19.796;2022-08-19T08:05:45;8.00;;;7.30;;
52934;SDS011;38802;50.198;19.796;2022-08-19T08:08:33;8.70;;;7.70;;
52934;SDS011;38802;50.198;19.796;2022-08-19T08:11:16;8.80;;;7.10;;
52934;SDS011;38802;50.198;19.796;2022-08-19T08:13:47;10.40;;;7.70;;
52934;SDS011;38802;50.198;19.796;2022-08-19T08:16:28;7.60;;;6.50;;
52934;SDS011;38802;50.198;19.796;2022-08-19T08:19:01;11.70;;;7.10;;
52934;SDS011;38802;50.198;19.796;2022-08-19T08:21:47;11.80;;;6.60;;
52934;SDS011;38802;50.198;19.796;2022-08-19T08:24:17;9.10;;;6.90;;
52934;SDS011;38802;50.198;19.796;2022-08-19T08:26:45;195.50;;;16.20;;
52934;SDS011;38802;50.198;19.796;2022-08-19T08:29:24;17.90;;;8.10;;
52934;SDS011;38802;50.198;19.796;2022-08-19T08:32:02;11.00;;;7.40;;
52934;SDS011;38802;50.198;19.796;2022-08-19T08:34:42;13.00;;;6.60;;
52934;SDS011;38802;50.198;19.796;2022-08-19T08:37:10;11.10;;;6.80;;
52934;SDS011;38802;50.198;19.796;2022-08-19T08:39:42;8.30;;;6.60;;
52934;SDS011;38802;50.198;19.796;2022-08-19T08:45:11;13.50;;;6.10;;
52934;SDS011;38802;50.198;19.796;2022-08-19T08:47:45;6.60;;;6.00;;
52934;SDS011;38802;50.198;19.796;2022-08-19T08:50:19;136.40;;;11.20;;
52934;SDS011;38802;50.198;19.796;2022-08-19T08:52:56;201.20;;;14.40;;
52934;SDS011;38802;50.198;19.796;2022-08-19T08:55:27;23.50;;;6.60;;
52934;SDS011;38802;50.198;19.796;2022-08-19T08:58:14;31.30;;;8.30;;
52934;SDS011;38802;50.198;19.796;2022-08-19T09:00:52;37.40;;;7.80;;
52934;SDS011;38802;50.198;19.796;2022-08-19T09:03:21;102.30;;;9.60;;
52934;SDS011;38802;50.198;19.796;2022-08-19T09:06:00;33.80;;;6.60;;
52934;SDS011;38802;50.198;19.796;2022-08-19T09:08:40;8.40;;;5.50;;
52934;SDS011;38802;50.198;19.796;2022-08-19T09:11:14;121.50;;;10.80;;
52934;SDS011;38802;50.198;19.796;2022-08-19T09:17:09;196.90;;;13.60;;
52934;SDS011;38802;50.198;19.796;2022-08-19T09:22:38;18.10;;;6.50;;
52934;SDS011;38802;50.198;19.796;2022-08-19T09:25:13;15.10;;;5.80;;
52934;SDS011;38802;50.198;19.796;2022-08-19T09:27:55;28.00;;;6.30;;
52934;SDS011;38802;50.198;19.796;2022-08-19T09:30:31;8.50;;;4.40;;
52934;SDS011;38802;50.198;19.796;2022-08-19T09:33:02;6.60;;;5.00;;
52934;SDS011;38802;50.198;19.796;2022-08-19T09:35:30;12.60;;;5.50;;
52934;SDS011;38802;50.198;19.796;2022-08-19T09:38:16;10.90;;;5.30;;
52934;SDS011;38802;50.198;19.796;2022-08-19T09:40:45;6.20;;;5.40;;
52934;SDS011;38802;50.198;19.796;2022-08-19T09:43:13;10.20;;;5.20;;
52934;SDS011;38802;50.198;19.796;2022-08-19T09:46:00;8.50;;;5.50;;
52934;SDS011;38802;50.198;19.796;2022-08-19T09:48:29;16.10;;;5.30;;
52934;SDS011;38802;50.198;19.796;2022-08-19T09:51:07;7.40;;;4.50;;
52934;SDS011;38802;50.198;19.796;2022-08-19T09:53:38;8.60;;;4.50;;
52934;SDS011;38802;50.198;19.796;2022-08-19T09:56:07;10.80;;;4.60;;
52934;SDS011;38802;50.198;19.796;2022-08-19T09:58:36;11.90;;;5.10;;
52934;SDS011;38802;50.198;19.796;2022-08-19T10:01:05;15.20;;;4.80;;
52934;SDS011;38802;50.198;19.796;2022-08-19T10:03:35;9.50;;;5.30;;
52934;SDS011;38802;50.198;19.796;2022-08-19T10:06:05;9.00;;;5.20;;
52934;SDS011;38802;50.198;19.796;2022-08-19T10:08:44;8.70;;;4.40;;
52934;SDS011;38802;50.198;19.796;2022-08-19T10:11:18;11.90;;;5.00;;
52934;SDS011;38802;50.198;19.796;2022-08-19T10:14:06;11.80;;;4.90;;
52934;SDS011;38802;50.198;19.796;2022-08-19T10:16:35;12.10;;;4.80;;
52934;SDS011;38802;50.198;19.796;2022-08-19T10:19:06;9.60;;;5.20;;
52934;SDS011;38802;50.198;19.796;2022-08-19T10:21:34;9.90;;;4.60;;
52934;SDS011;38802;50.198;19.796;2022-08-19T10:24:03;15.70;;;4.20;;
52934;SDS011;38802;50.198;19.796;2022-08-19T10:26:34;10.70;;;4.80;;
52934;SDS011;38802;50.198;19.796;2022-08-19T10:29:05;13.90;;;4.40;;
52934;SDS011;38802;50.198;19.796;2022-08-19T10:31:36;5.40;;;4.50;;
52934;SDS011;38802;50.198;19.796;2022-08-19T10:34:25;8.20;;;4.90;;
52934;SDS011;38802;50.198;19.796;2022-08-19T10:36:55;12.60;;;4.80;;
52934;SDS011;38802;50.198;19.796;2022-08-19T10:39:29;12.10;;;5.30;;
52934;SDS011;38802;50.198;19.796;2022-08-19T10:42:07;12.10;;;4.80;;
52934;SDS011;38802;50.198;19.796;2022-08-19T10:44:39;11.30;;;4.60;;
52934;SDS011;38802;50.198;19.796;2022-08-19T10:47:08;10.10;;;4.60;;
52934;SDS011;38802;50.198;19.796;2022-08-19T10:49:54;10.40;;;4.60;;
52934;SDS011;38802;50.198;19.796;2022-08-19T10:52:44;13.60;;;5.90;;
52934;SDS011;38802;50.198;19.796;2022-08-19T10:58:12;21.60;;;6.70;;
52934;SDS011;38802;50.198;19.796;2022-08-19T11:00:42;18.70;;;5.60;;
52934;SDS011;38802;50.198;19.796;2022-08-19T11:03:11;13.20;;;6.00;;
52934;SDS011;38802;50.198;19.796;2022-08-19T11:05:39;12.40;;;5.80;;
52934;SDS011;38802;50.198;19.796;2022-08-19T11:08:08;15.10;;;6.20;;
52934;SDS011;38802;50.198;19.796;2022-08-19T11:10:53;12.90;;;5.60;;
52934;SDS011;38802;50.198;19.796;2022-08-19T11:13:25;15.80;;;5.60;;
52934;SDS011;38802;50.198;19.796;2022-08-19T11:16:07;7.40;;;5.10;;
52934;SDS011;38802;50.198;19.796;2022-08-19T11:18:40;18.80;;;5.90;;
52934;SDS011;38802;50.198;19.796;2022-08-19T11:21:12;13.40;;;5.90;;
52934;SDS011;38802;50.198;19.796;2022-08-19T11:23:55;20.10;;;6.60;;
52934;SDS011;38802;50.198;19.796;2022-08-19T11:26:25;8.80;;;5.90;;
52934;SDS011;38802;50.198;19.796;2022-08-19T11:28:54;11.70;;;6.30;;
52934;SDS011;38802;50.198;19.796;2022-08-19T11:31:24;11.40;;;5.50;;
52934;SDS011;38802;50.198;19.796;2022-08-19T11:33:56;12.20;;;5.70;;
52934;SDS011;38802;50.198;19.796;2022-08-19T11:36:27;15.30;;;5.10;;
52934;SDS011;38802;50.198;19.796;2022-08-19T11:38:56;14.20;;;5.00;;
52934;SDS011;38802;50.198;19.796;2022-08-19T11:41:24;13.40;;;5.10;;
52934;SDS011;38802;50.198;19.796;2022-08-19T11:43:53;9.80;;;5.00;;
52934;SDS011;38802;50.198;19.796;2022-08-19T11:46:23;15.50;;;5.20;;
52934;SDS011;38802;50.198;19.796;2022-08-19T11:48:52;15.40;;;6.40;;
52934;SDS011;38802;50.198;19.796;2022-08-19T11:51:23;8.30;;;5.10;;
52934;SDS011;38802;50.198;19.796;2022-08-19T11:53:53;9.00;;;4.90;;
52934;SDS011;38802;50.198;19.796;2022-08-19T11:56:23;12.00;;;4.70;;
52934;SDS011;38802;50.198;19.796;2022-08-19T11:58:53;16.90;;;5.60;;
52934;SDS011;38802;50.198;19.796;2022-08-19T12:01:25;18.10;;;6.00;;
52934;SDS011;38802;50.198;19.796;2022-08-19T12:03:55;11.40;;;4.90;;
52934;SDS011;38802;50.198;19.796;2022-08-19T12:06:26;12.30;;;5.40;;
52934;SDS011;38802;50.198;19.796;2022-08-19T12:08:58;9.80;;;5.00;;
52934;SDS011;38802;50.198;19.796;2022-08-19T12:11:27;9.60;;;5.60;;
52934;SDS011;38802;50.198;19.796;2022-08-19T12:14:01;9.80;;;6.00;;
52934;SDS011;38802;50.198;19.796;2022-08-19T12:16:29;10.30;;;5.20;;
52934;SDS011;38802;50.198;19.796;2022-08-19T12:19:00;6.30;;;5.50;;
52934;SDS011;38802;50.198;19.796;2022-08-19T12:21:34;13.70;;;5.90;;
52934;SDS011;38802;50.198;19.796;2022-08-19T12:24:04;14.60;;;6.20;;
52934;SDS011;38802;50.198;19.796;2022-08-19T12:26:34;8.80;;;4.60;;
52934;SDS011;38802;50.198;19.796;2022-08-19T12:29:21;8.60;;;5.70;;
52934;SDS011;38802;50.198;19.796;2022-08-19T12:31:57;8.40;;;4.90;;
52934;SDS011;38802;50.198;19.796;2022-08-19T12:34:30;12.10;;;5.70;;
52934;SDS011;38802;50.198;19.796;2022-08-19T12:37:01;10.00;;;5.60;;
52934;SDS011;38802;50.198;19.796;2022-08-19T12:39:36;11.50;;;7.20;;
52934;SDS011;38802;50.198;19.796;2022-08-19T12:42:07;6.30;;;4.80;;
52934;SDS011;38802;50.198;19.796;2022-08-19T12:44:37;13.50;;;5.40;;
52934;SDS011;38802;50.198;19.796;2022-08-19T12:47:09;6.10;;;5.20;;
52934;SDS011;38802;50.198;19.796;2022-08-19T12:49:39;7.10;;;5.30;;
52934;SDS011;38802;50.198;19.796;2022-08-19T12:52:23;7.80;;;5.10;;
52934;SDS011;38802;50.198;19.796;2022-08-19T12:54:53;6.10;;;5.20;;
52934;SDS011;38802;50.198;19.796;2022-08-19T12:57:24;13.00;;;5.70;;
52934;SDS011;38802;50.198;19.796;2022-08-19T13:00:10;8.60;;;5.60;;
52934;SDS011;38802;50.198;19.796;2022-08-19T13:02:42;9.60;;;5.40;;
52934;SDS011;38802;50.198;19.796;2022-08-19T13:05:14;10.10;;;5.40;;
52934;SDS011;38802;50.198;19.796;2022-08-19T13:07:44;7.50;;;5.50;;
52934;SDS011;38802;50.198;19.796;2022-08-19T13:10:14;11.10;;;6.50;;
52934;SDS011;38802;50.198;19.796;2022-08-19T13:12:45;10.00;;;6.60;;
52934;SDS011;38802;50.198;19.796;2022-08-19T13:15:16;10.10;;;6.30;;
52934;SDS011;38802;50.198;19.796;2022-08-19T13:17:52;10.60;;;5.40;;
52934;SDS011;38802;50.198;19.796;2022-08-19T13:20:21;11.40;;;5.90;;
52934;SDS011;38802;50.198;19.796;2022-08-19T13:22:50;8.80;;;5.60;;
52934;SDS011;38802;50.198;19.796;2022-08-19T13:25:19;7.70;;;5.80;;
52934;SDS011;38802;50.198;19.796;2022-08-19T13:27:48;8.20;;;5.10;;
52934;SDS011;38802;50.198;19.796;2022-08-19T13:30:18;15.60;;;5.40;;
52934;SDS011;38802;50.198;19.796;2022-08-19T13:33:06;12.20;;;5.00;;
52934;SDS011;38802;50.198;19.796;2022-08-19T13:35:39;15.60;;;5.40;;
52934;SDS011;38802;50.198;19.796;2022-08-19T13:38:19;10.90;;;4.70;;
52934;SDS011;38802;50.198;19.796;2022-08-19T13:40:49;6.50;;;4.90;;
52934;SDS011;38802;50.198;19.796;2022-08-19T13:43:21;9.60;;;5.20;;
52934;SDS011;38802;50.198;19.796;2022-08-19T13:45:51;6.10;;;4.20;;
52934;SDS011;38802;50.198;19.796;2022-08-19T13:48:24;6.50;;;5.50;;
52934;SDS011;38802;50.198;19.796;2022-08-19T13:50:54;14.10;;;5.40;;
52934;SDS011;38802;50.198;19.796;2022-08-19T13:53:23;22.40;;;5.50;;
52934;SDS011;38802;50.198;19.796;2022-08-19T13:55:52;11.90;;;5.30;;
52934;SDS011;38802;50.198;19.796;2022-08-19T13:58:22;12.40;;;4.90;;
52934;SDS011;38802;50.198;19.796;2022-08-19T14:00:50;9.80;;;5.20;;
52934;SDS011;38802;50.198;19.796;2022-08-19T14:03:18;8.40;;;5.50;;
52934;SDS011;38802;50.198;19.796;2022-08-19T14:05:47;12.10;;;5.50;;
52934;SDS011;38802;50.198;19.796;2022-08-19T14:08:15;9.90;;;5.80;;
52934;SDS011;38802;50.198;19.796;2022-08-19T14:10:44;7.20;;;4.70;;
52934;SDS011;38802;50.198;19.796;2022-08-19T14:13:14;11.50;;;5.50;;
52934;SDS011;38802;50.198;19.796;2022-08-19T14:15:45;8.10;;;5.60;;
52934;SDS011;38802;50.198;19.796;2022-08-19T14:18:15;6.60;;;5.10;;
52934;SDS011;38802;50.198;19.796;2022-08-19T14:20:45;9.40;;;5.20;;
52934;SDS011;38802;50.198;19.796;2022-08-19T14:23:14;8.20;;;5.70;;
52934;SDS011;38802;50.198;19.796;2022-08-19T14:25:43;11.80;;;4.40;;
52934;SDS011;38802;50.198;19.796;2022-08-19T14:28:12;8.50;;;5.20;;
52934;SDS011;38802;50.198;19.796;2022-08-19T14:30:41;7.50;;;5.20;;
52934;SDS011;38802;50.198;19.796;2022-08-19T14:33:09;14.90;;;5.30;;
52934;SDS011;38802;50.198;19.796;2022-08-19T14:35:37;17.40;;;4.90;;
52934;SDS011;38802;50.198;19.796;2022-08-19T14:38:06;9.30;;;5.60;;
52934;SDS011;38802;50.198;19.796;2022-08-19T14:40:42;5.70;;;5.20;;
52934;SDS011;38802;50.198;19.796;2022-08-19T14:43:10;10.50;;;5.20;;
52934;SDS011;38802;50.198;19.796;2022-08-19T14:45:38;6.00;;;5.50;;
52934;SDS011;38802;50.198;19.796;2022-08-19T14:48:08;6.70;;;5.20;;
52934;SDS011;38802;50.198;19.796;2022-08-19T14:50:46;6.90;;;4.90;;
52934;SDS011;38802;50.198;19.796;2022-08-19T14:53:15;6.70;;;5.30;;
52934;SDS011;38802;50.198;19.796;2022-08-19T14:55:44;10.30;;;6.10;;
52934;SDS011;38802;50.198;19.796;2022-08-19T14:58:14;7.90;;;4.90;;
52934;SDS011;38802;50.198;19.796;2022-08-19T15:01:00;7.10;;;5.80;;
52934;SDS011;38802;50.198;19.796;2022-08-19T15:03:29;8.80;;;5.50;;
52934;SDS011;38802;50.198;19.796;2022-08-19T15:05:59;11.20;;;5.90;;